SOHO CELIAS Proton Monitor
Solar Wind Parameters for Carrington Rotation 2133 (hour averages)


Listed Parameters:

Measurement time (Year, Month, Day of Month, Day of Year, Hour, Minute, Second)
Proton speed [km/sec]
Proton density [protons per cubic centimeter]
Most probable proton thermal speed [km/sec]
Arrival direction [degrees from north-south, with + meaning FROM the south).
(SPEED=-1 means NOT AVAILABLE)

SOHO spacecraft coordinates: based on SOHO PRE orbit files
GSE X, Y, Z [Earth Radii] 1 RE == 6378 km
Heliocentric Range [106 km],
Heliographic Latitude and Longitude [deg].

FORMAT=(1X,I2,1X,I3,1X,I2,1X,I2,1X,I2,F7.1,3F7.2,3X,3F7.1,F7.1,F7.2,F8.2)



                              CELIAS/MTOF/PM DATA                      SOHO ORBIT DATA              
 InSitu_Start__Time       [km/s]  [cm-3] [km/s]  [deg]      [Re]   [Re]   [Re]  [Mkm]  [deg]  [deg]
 YY MON DY DOY:HH:MM:SS   SPEED     Np     Vth    N/S      GSE_X  GSE_Y  GSE_Z  RANGE  HGLAT  HGLONG
 13 JAN 25  25:20:00:00     365   10.1      22   -1.3      241.9  -76.9  -14.3  145.7   -5.6     0.2
 13 JAN 25  25:21:00:00     376   16.5      27   -3.7      241.9  -77.0  -14.3  145.7   -5.6   359.6
 13 JAN 25  25:22:00:00     388   18.1      30   -4.1      241.8  -77.1  -14.3  145.7   -5.6   359.1
 13 JAN 25  25:23:00:00     384   11.2      34   -0.3      241.8  -77.2  -14.3  145.7   -5.6   358.5
 13 JAN 26  26:00:00:00     402   13.4      37   -2.0      241.7  -77.3  -14.3  145.7   -5.6   358.0
 13 JAN 26  26:01:00:00     401   12.8      38   -3.4      241.7  -77.4  -14.2  145.8   -5.6   357.4
 13 JAN 26  26:02:00:00     407   12.3      37   -0.5      241.7  -77.5  -14.2  145.8   -5.6   356.9
 13 JAN 26  26:03:00:00     403   11.8      35    0.8      241.6  -77.6  -14.2  145.8   -5.6   356.3
 13 JAN 26  26:04:00:00     397    9.8      35    0.1      241.6  -77.7  -14.2  145.8   -5.6   355.7
 13 JAN 26  26:05:00:00     424   10.5      42   -2.2      241.5  -77.8  -14.2  145.8   -5.6   355.2
 13 JAN 26  26:06:00:00     407   10.3      43    0.2      241.5  -77.9  -14.2  145.8   -5.6   354.7
 13 JAN 26  26:07:00:00     436   15.3      52   -2.6      241.4  -78.0  -14.1  145.8   -5.7   354.1
 13 JAN 26  26:08:00:00     444   13.5      53   -1.4      241.4  -78.1  -14.1  145.8   -5.7   353.6
 13 JAN 26  26:09:00:00     461   11.6      50   -0.5      241.3  -78.2  -14.1  145.8   -5.7   353.1
 13 JAN 26  26:10:00:00     459   10.0      50    0.6      241.3  -78.3  -14.1  145.8   -5.7   352.5
 13 JAN 26  26:11:00:00     450    8.7      52   -0.2      241.2  -78.5  -14.1  145.8   -5.7   351.9
 13 JAN 26  26:12:00:00     442    8.9      52   -0.9      241.2  -78.6  -14.0  145.8   -5.7   351.4
 13 JAN 26  26:13:00:00     431   13.6      53   -1.5      241.1  -78.7  -14.0  145.8   -5.7   350.8
 13 JAN 26  26:14:00:00     425   10.2      52   -0.3      241.1  -78.8  -14.0  145.8   -5.7   350.3
 13 JAN 26  26:15:00:00     430    9.3      53    0.8      241.0  -78.9  -14.0  145.8   -5.7   349.7
 13 JAN 26  26:16:00:00     433   11.5      53    1.5      241.0  -79.0  -14.0  145.8   -5.7   349.2
 13 JAN 26  26:17:00:00     432   14.5      57    3.1      240.9  -79.1  -14.0  145.8   -5.7   348.6
 13 JAN 26  26:18:00:00     440   12.4      55    1.1      240.9  -79.2  -13.9  145.8   -5.7   348.1
 13 JAN 26  26:19:00:00     438   12.0      54    0.8      240.8  -79.3  -13.9  145.8   -5.7   347.6
 13 JAN 26  26:20:00:00     426   11.8      52   -1.1      240.8  -79.4  -13.9  145.8   -5.7   347.0
 13 JAN 26  26:21:00:00     492    4.1      53    0.8      240.7  -79.5  -13.9  145.8   -5.7   346.5
 13 JAN 26  26:22:00:00     505    3.0      47   -0.9      240.7  -79.6  -13.9  145.8   -5.7   345.9
 13 JAN 26  26:23:00:00     500    2.8      44   -0.3      240.6  -79.7  -13.9  145.8   -5.7   345.4
 13 JAN 27  27:00:00:00     491    2.9      43   -0.4      240.6  -79.8  -13.8  145.8   -5.7   344.8
 13 JAN 27  27:01:00:00     466    3.6      38   -1.2      240.5  -79.9  -13.8  145.8   -5.7   344.2
 13 JAN 27  27:02:00:00     465    3.0      41   -0.8      240.5  -80.0  -13.8  145.8   -5.7   343.7
 13 JAN 27  27:03:00:00     466    3.4      36   -0.3      240.4  -80.1  -13.8  145.8   -5.7   343.1
 13 JAN 27  27:04:00:00     465    3.5      36   -0.8      240.4  -80.2  -13.8  145.8   -5.7   342.6
 13 JAN 27  27:05:00:00     472    3.1      39    1.4      240.3  -80.3  -13.7  145.8   -5.7   342.1
 13 JAN 27  27:06:00:00     469    3.0      39    1.0      240.3  -80.4  -13.7  145.8   -5.7   341.5
 13 JAN 27  27:07:00:00     453    1.9      40   -2.0      240.3  -80.5  -13.7  145.8   -5.7   341.0
 13 JAN 27  27:08:00:00     457    2.5      36   -1.5      240.2  -80.6  -13.7  145.8   -5.7   340.4
 13 JAN 27  27:09:00:00     456    3.7      31    0.5      240.2  -80.7  -13.7  145.8   -5.7   339.9
 13 JAN 27  27:10:00:00     454    3.3      32    0.4      240.1  -80.8  -13.7  145.8   -5.7   339.3
 13 JAN 27  27:11:00:00     454    2.9      34    0.4      240.1  -80.9  -13.6  145.8   -5.7   338.8
 13 JAN 27  27:12:00:00     451    2.8      37   -0.2      240.0  -81.0  -13.6  145.8   -5.7   338.2
 13 JAN 27  27:13:00:00     442    2.7      40   -3.4      240.0  -81.1  -13.6  145.8   -5.7   337.7
 13 JAN 27  27:14:00:00     437    3.0      40   -3.5      239.9  -81.2  -13.6  145.8   -5.7   337.1
 13 JAN 27  27:15:00:00     428    3.3      40   -1.7      239.9  -81.3  -13.6  145.8   -5.7   336.6
 13 JAN 27  27:16:00:00     411    3.5      37   -2.1      239.8  -81.4  -13.5  145.8   -5.7   336.0
 13 JAN 27  27:17:00:00     408    3.2      37   -1.6      239.8  -81.5  -13.5  145.8   -5.7   335.5
 13 JAN 27  27:18:00:00     401    3.3      34   -1.7      239.7  -81.6  -13.5  145.8   -5.8   335.0
 13 JAN 27  27:19:00:00     402    3.2      35   -0.2      239.7  -81.7  -13.5  145.8   -5.8   334.4
 13 JAN 27  27:20:00:00     401    3.4      34   -0.3      239.6  -81.8  -13.5  145.8   -5.8   333.9
 13 JAN 27  27:21:00:00     398    3.3      33   -0.6      239.6  -81.9  -13.5  145.8   -5.8   333.3
 13 JAN 27  27:22:00:00     388    3.6      30   -1.1      239.5  -82.0  -13.4  145.8   -5.8   332.7
 13 JAN 27  27:23:00:00     385    3.5      29   -1.6      239.5  -82.1  -13.4  145.8   -5.8   332.2
 13 JAN 28  28:00:00:00     386    3.5      29   -1.1      239.4  -82.2  -13.4  145.8   -5.8   331.6
 13 JAN 28  28:01:00:00     388    3.4      30   -0.2      239.4  -82.3  -13.4  145.8   -5.8   331.1
 13 JAN 28  28:02:00:00     388    3.3      29   -1.3      239.3  -82.4  -13.4  145.8   -5.8   330.5
 13 JAN 28  28:03:00:00     377    3.8      25   -1.5      239.3  -82.5  -13.3  145.8   -5.8   330.0
 13 JAN 28  28:04:00:00     374    4.2      24   -1.7      239.2  -82.6  -13.3  145.8   -5.8   329.5
 13 JAN 28  28:05:00:00     385    2.8      28   -1.4      239.2  -82.7  -13.3  145.8   -5.8   328.9
 13 JAN 28  28:06:00:00     372    3.0      27   -0.9      239.1  -82.8  -13.3  145.8   -5.8   328.4
 13 JAN 28  28:07:00:00     372    3.2      26   -0.4      239.1  -82.9  -13.3  145.8   -5.8   327.8
 13 JAN 28  28:08:00:00     369    3.6      24   -0.1      239.1  -83.0  -13.3  145.8   -5.8   327.3
 13 JAN 28  28:09:00:00     373    3.8      25    0.3      239.0  -83.1  -13.2  145.8   -5.8   326.7
 13 JAN 28  28:10:00:00     374    3.5      26   -0.1      239.0  -83.2  -13.2  145.8   -5.8   326.2
 13 JAN 28  28:11:00:00     374    4.3      26   -1.5      238.9  -83.3  -13.2  145.8   -5.8   325.6
 13 JAN 28  28:12:00:00     366    4.2      27   -1.8      238.9  -83.4  -13.2  145.8   -5.8   325.0
 13 JAN 28  28:13:00:00     364    4.3      24   -0.4      238.8  -83.5  -13.2  145.8   -5.8   324.5
 13 JAN 28  28:14:00:00     361    4.3      23   -0.5      238.8  -83.6  -13.1  145.8   -5.8   324.0
 13 JAN 28  28:15:00:00     361    3.7      24    0.3      238.7  -83.6  -13.1  145.8   -5.8   323.4
 13 JAN 28  28:16:00:00     359    4.1      23   -0.3      238.7  -83.7  -13.1  145.8   -5.8   322.9
 13 JAN 28  28:17:00:00     367    3.4      27    0.7      238.6  -83.8  -13.1  145.8   -5.8   322.3
 13 JAN 28  28:18:00:00     377    3.4      28   -0.3      238.6  -83.9  -13.1  145.8   -5.8   321.8
 13 JAN 28  28:19:00:00     374    4.0      26   -0.2      238.5  -84.0  -13.0  145.8   -5.8   321.2
 13 JAN 28  28:20:00:00     372    3.8      27    0.0      238.5  -84.1  -13.0  145.8   -5.8   320.7
 13 JAN 28  28:21:00:00     365    3.9      26   -0.3      238.4  -84.2  -13.0  145.8   -5.8   320.1
 13 JAN 28  28:22:00:00     366    4.1      25    0.0      238.4  -84.3  -13.0  145.8   -5.8   319.6
 13 JAN 28  28:23:00:00     368    4.0      24   -0.2      238.3  -84.4  -13.0  145.8   -5.8   319.0
 13 JAN 29  29:00:00:00     364    3.3      25   -0.6      238.3  -84.5  -13.0  145.8   -5.8   318.5
 13 JAN 29  29:01:00:00     362    2.7      25    0.0      238.2  -84.6  -12.9  145.8   -5.8   317.9
 13 JAN 29  29:02:00:00     356    2.3      27   -0.4      238.2  -84.7  -12.9  145.8   -5.8   317.4
 13 JAN 29  29:03:00:00     360    2.4      26   -1.8      238.1  -84.8  -12.9  145.8   -5.8   316.8
 13 JAN 29  29:04:00:00     359    2.2      26   -1.6      238.1  -84.9  -12.9  145.8   -5.8   316.3
 13 JAN 29  29:05:00:00     361    2.7      24   -2.1      238.1  -85.0  -12.9  145.8   -5.9   315.8
 13 JAN 29  29:06:00:00     357    2.8      22   -0.3      238.0  -85.1  -12.8  145.8   -5.9   315.2
 13 JAN 29  29:07:00:00     357    2.9      23   -1.5      238.0  -85.1  -12.8  145.8   -5.9   314.7
 13 JAN 29  29:08:00:00     359    2.7      22   -1.7      237.9  -85.2  -12.8  145.8   -5.9   314.1
 13 JAN 29  29:09:00:00     359    2.6      24   -1.9      237.9  -85.3  -12.8  145.8   -5.9   313.5
 13 JAN 29  29:10:00:00     358    2.2      27   -1.3      237.8  -85.4  -12.8  145.8   -5.9   313.0
 13 JAN 29  29:11:00:00     352    2.3      25   -0.2      237.8  -85.5  -12.7  145.8   -5.9   312.4
 13 JAN 29  29:12:00:00     355    2.9      24    0.1      237.7  -85.6  -12.7  145.8   -5.9   311.9
 13 JAN 29  29:13:00:00     355    2.9      24   -0.1      237.7  -85.7  -12.7  145.8   -5.9   311.3
 13 JAN 29  29:14:00:00     358    2.7      25   -0.1      237.6  -85.8  -12.7  145.8   -5.9   310.8
 13 JAN 29  29:15:00:00     363    2.4      27   -1.1      237.6  -85.9  -12.7  145.8   -5.9   310.3
 13 JAN 29  29:16:00:00     361    1.0      32   -1.0      237.5  -86.0  -12.6  145.8   -5.9   309.7
 13 JAN 29  29:17:00:00     354    1.0      32   -1.5      237.5  -86.1  -12.6  145.8   -5.9   309.2
 13 JAN 29  29:18:00:00     355    0.9      32   -2.0      237.4  -86.1  -12.6  145.8   -5.9   308.6
 13 JAN 29  29:19:00:00     360    0.8      34   -2.0      237.4  -86.2  -12.6  145.8   -5.9   308.1
 13 JAN 29  29:20:00:00     347    0.9      31   -0.8      237.3  -86.3  -12.6  145.8   -5.9   307.5
 13 JAN 29  29:21:00:00     326    1.4      25    1.5      237.3  -86.4  -12.5  145.8   -5.9   307.0
 13 JAN 29  29:22:00:00     313    2.1      22    1.5      237.2  -86.5  -12.5  145.9   -5.9   306.4
 13 JAN 29  29:23:00:00     331    1.6      29    1.1      237.2  -86.6  -12.5  145.9   -5.9   305.8
 13 JAN 30  30:00:00:00     332    1.6      29    1.3      237.2  -86.7  -12.5  145.9   -6.0   305.3
 13 JAN 30  30:01:00:00     341    1.6      31    0.9      237.1  -86.8  -12.5  145.9   -6.0   304.8
 13 JAN 30  30:02:00:00     343    1.6      31    0.6      237.1  -86.9  -12.4  145.9   -6.0   304.2
 13 JAN 30  30:03:00:00     339    1.7      30    0.7      237.0  -86.9  -12.4  145.9   -6.0   303.7
 13 JAN 30  30:04:00:00     332    2.0      28    1.1      237.0  -87.0  -12.4  145.9   -6.0   303.2
 13 JAN 30  30:05:00:00     318    2.6      25    0.9      236.9  -87.1  -12.4  145.9   -6.0   302.6
 13 JAN 30  30:06:00:00     314    2.7      22    0.9      236.9  -87.2  -12.4  145.9   -6.0   302.0
 13 JAN 30  30:07:00:00     326    2.9      25   -0.7      236.8  -87.3  -12.3  145.9   -6.0   301.5
 13 JAN 30  30:08:00:00     307    2.9      22    1.3      236.8  -87.4  -12.3  145.9   -6.0   300.9
 13 JAN 30  30:09:00:00     304    2.8      21    1.6      236.7  -87.5  -12.3  145.9   -6.0   300.4
 13 JAN 30  30:10:00:00     306    2.7      21    1.7      236.7  -87.6  -12.3  145.9   -6.0   299.8
 13 JAN 30  30:11:00:00     305    2.8      20    1.5      236.6  -87.6  -12.3  145.9   -6.0   299.3
 13 JAN 30  30:12:00:00     300    3.1      19    1.0      236.6  -87.7  -12.2  145.9   -6.0   298.7
 13 JAN 30  30:13:00:00     305    3.2      20    0.9      236.5  -87.8  -12.2  145.9   -6.0   298.2
 13 JAN 30  30:14:00:00     303    3.3      19    0.9      236.5  -87.9  -12.2  145.9   -6.0   297.7
 13 JAN 30  30:15:00:00     299    3.1      19    1.4      236.4  -88.0  -12.2  145.9   -6.0   297.1
 13 JAN 30  30:16:00:00     303    2.8      19    1.1      236.4  -88.1  -12.2  145.9   -6.0   296.6
 13 JAN 30  30:17:00:00     298    3.3      19    0.9      236.4  -88.2  -12.1  145.9   -6.0   296.0
 13 JAN 30  30:18:00:00     291    3.6      19    0.6      236.3  -88.2  -12.1  145.9   -6.0   295.5
 13 JAN 30  30:19:00:00     292    3.5      19    0.6      236.3  -88.3  -12.1  145.9   -6.0   294.9
 13 JAN 30  30:20:00:00     289    3.2      19    1.0      236.2  -88.4  -12.1  145.9   -6.0   294.3
 13 JAN 30  30:21:00:00     287    3.1      18    1.1      236.2  -88.5  -12.1  145.9   -6.0   293.8
 13 JAN 30  30:22:00:00     285    3.8      17    1.1      236.1  -88.6  -12.0  145.9   -6.0   293.2
 13 JAN 30  30:23:00:00     284    3.5      17    1.2      236.1  -88.7  -12.0  145.9   -6.0   292.7
 13 JAN 31  31:00:00:00     286    3.3      17    1.3      236.0  -88.7  -12.0  145.9   -6.0   292.2
 13 JAN 31  31:01:00:00     285    3.6      17    1.1      236.0  -88.8  -12.0  145.9   -6.0   291.6
 13 JAN 31  31:02:00:00     284    4.0      17    1.1      235.9  -88.9  -12.0  145.9   -6.0   291.1
 13 JAN 31  31:03:00:00     284    5.0      17    0.7      235.9  -89.0  -11.9  145.9   -6.0   290.5
 13 JAN 31  31:04:00:00     283    5.8      17    0.1      235.8  -89.1  -11.9  145.9   -6.0   290.0
 13 JAN 31  31:05:00:00     279    6.6      16    0.0      235.8  -89.2  -11.9  145.9   -6.0   289.4
 13 JAN 31  31:06:00:00     279    7.8      16   -0.1      235.7  -89.2  -11.9  145.9   -6.0   288.9
 13 JAN 31  31:07:00:00     281    8.1      17   -0.4      235.7  -89.3  -11.9  145.9   -6.0   288.3
 13 JAN 31  31:08:00:00     281    8.2      16   -0.4      235.7  -89.4  -11.8  145.9   -6.0   287.8
 13 JAN 31  31:09:00:00     281    8.6      17   -0.4      235.6  -89.5  -11.8  145.9   -6.0   287.2
 13 JAN 31  31:10:00:00     280    8.3      16   -0.1      235.6  -89.6  -11.8  145.9   -6.0   286.7
 13 JAN 31  31:11:00:00     277    8.1      16   -0.1      235.5  -89.6  -11.8  145.9   -6.0   286.1
 13 JAN 31  31:12:00:00     277    7.9      16    0.2      235.5  -89.7  -11.8  145.9   -6.0   285.6
 13 JAN 31  31:13:00:00     275    7.8      15    0.4      235.4  -89.8  -11.7  145.9   -6.0   285.0
 13 JAN 31  31:14:00:00     280    7.5      15    0.7      235.4  -89.9  -11.7  145.9   -6.1   284.5
 13 JAN 31  31:15:00:00     287    7.8      17    0.7      235.3  -90.0  -11.7  145.9   -6.1   284.0
 13 JAN 31  31:16:00:00     287    8.4      17    0.1      235.3  -90.0  -11.7  145.9   -6.1   283.4
 13 JAN 31  31:17:00:00     289    8.3      18   -0.3      235.2  -90.1  -11.7  145.9   -6.1   282.8
 13 JAN 31  31:18:00:00     299    7.9      19   -0.8      235.2  -90.2  -11.6  145.9   -6.1   282.3
 13 JAN 31  31:19:00:00     307    8.4      20   -0.7      235.1  -90.3  -11.6  145.9   -6.1   281.7
 13 JAN 31  31:20:00:00     314    8.2      21   -1.3      235.1  -90.4  -11.6  145.9   -6.1   281.2
 13 JAN 31  31:21:00:00     312    7.3      21    0.4      235.1  -90.4  -11.6  145.9   -6.1   280.6
 13 JAN 31  31:22:00:00     312    7.2      20   -0.8      235.0  -90.5  -11.5  145.9   -6.1   280.1
 13 JAN 31  31:23:00:00     311    7.2      20   -2.2      235.0  -90.6  -11.5  145.9   -6.1   279.5
 13 FEB  1  32:00:00:00     309    8.5      20   -2.6      234.9  -90.7  -11.5  145.9   -6.1   279.0
 13 FEB  1  32:01:00:00     309    8.2      20   -1.0      234.9  -90.7  -11.5  145.9   -6.1   278.5
 13 FEB  1  32:02:00:00     313    8.5      21    0.0      234.8  -90.8  -11.5  145.9   -6.1   277.9
 13 FEB  1  32:03:00:00     317    8.8      22   -1.8      234.8  -90.9  -11.4  145.9   -6.1   277.4
 13 FEB  1  32:04:00:00     315    9.9      21   -1.5      234.7  -91.0  -11.4  145.9   -6.1   276.8
 13 FEB  1  32:05:00:00     314   10.1      21   -2.8      234.7  -91.1  -11.4  145.9   -6.1   276.3
 13 FEB  1  32:06:00:00     310    7.6      20   -1.6      234.6  -91.1  -11.4  145.9   -6.1   275.7
 13 FEB  1  32:07:00:00     317    8.2      23   -2.3      234.6  -91.2  -11.4  145.9   -6.1   275.1
 13 FEB  1  32:08:00:00     323    9.2      24   -3.1      234.5  -91.3  -11.3  145.9   -6.1   274.6
 13 FEB  1  32:09:00:00     324   11.1      23   -3.2      234.5  -91.4  -11.3  145.9   -6.1   274.0
 13 FEB  1  32:10:00:00     328   11.0      24   -3.1      234.5  -91.4  -11.3  145.9   -6.1   273.5
 13 FEB  1  32:11:00:00     327   12.5      23   -3.8      234.4  -91.5  -11.3  145.9   -6.1   273.0
 13 FEB  1  32:12:00:00     327   11.0      23   -3.9      234.4  -91.6  -11.2  145.9   -6.1   272.4
 13 FEB  1  32:13:00:00     324   10.4      22   -3.0      234.3  -91.7  -11.2  145.9   -6.1   271.9
 13 FEB  1  32:14:00:00     329    9.9      23   -2.1      234.3  -91.7  -11.2  145.9   -6.1   271.3
 13 FEB  1  32:15:00:00     339   15.4      24   -4.1      234.2  -91.8  -11.2  145.9   -6.1   270.8
 13 FEB  1  32:16:00:00     345   22.5      24   -6.5      234.2  -91.9  -11.2  145.9   -6.1   270.2
 13 FEB  1  32:17:00:00     345   21.4      23   -5.7      234.1  -91.9  -11.1  145.9   -6.1   269.7
 13 FEB  1  32:18:00:00     344   21.0      22   -5.8      234.1  -92.0  -11.1  145.9   -6.1   269.1
 13 FEB  1  32:19:00:00     345   18.4      19   -5.8      234.0  -92.1  -11.1  145.9   -6.1   268.6
 13 FEB  1  32:20:00:00     344   19.7      18   -7.1      234.0  -92.2  -11.1  145.9   -6.1   268.0
 13 FEB  1  32:21:00:00     350    9.2      31   -5.9      233.9  -92.2  -11.1  145.9   -6.1   267.5
 13 FEB  1  32:22:00:00     357    8.9      34   -5.3      233.9  -92.3  -11.0  145.9   -6.1   266.9
 13 FEB  1  32:23:00:00     375    8.6      39   -6.9      233.9  -92.4  -11.0  145.9   -6.1   266.4
 13 FEB  2  33:00:00:00     395    6.8      41   -4.9      233.8  -92.5  -11.0  145.9   -6.1   265.9
 13 FEB  2  33:01:00:00     414    7.2      44   -3.3      233.8  -92.5  -11.0  145.9   -6.1   265.3
 13 FEB  2  33:02:00:00     421    8.1      48   -1.3      233.7  -92.6  -10.9  145.9   -6.1   264.8
 13 FEB  2  33:03:00:00     423    8.1      44   -4.0      233.7  -92.7  -10.9  145.9   -6.1   264.2
 13 FEB  2  33:04:00:00     411    8.6      45   -3.4      233.6  -92.7  -10.9  145.9   -6.1   263.6
 13 FEB  2  33:05:00:00     420   10.7      49   -3.1      233.6  -92.8  -10.9  145.9   -6.2   263.1
 13 FEB  2  33:06:00:00     420   10.6      47   -2.5      233.5  -92.9  -10.9  145.9   -6.2   262.5
 13 FEB  2  33:07:00:00     410    8.7      39   -1.5      233.5  -92.9  -10.8  145.9   -6.2   262.0
 13 FEB  2  33:08:00:00     407    9.6      46   -1.5      233.4  -93.0  -10.8  145.9   -6.2   261.4
 13 FEB  2  33:09:00:00     417    8.8      49   -0.3      233.4  -93.1  -10.8  146.0   -6.2   260.9
 13 FEB  2  33:10:00:00     427    8.9      52    0.9      233.3  -93.2  -10.8  146.0   -6.2   260.4
 13 FEB  2  33:11:00:00     426    7.3      52    0.4      233.3  -93.2  -10.8  146.0   -6.2   259.8
 13 FEB  2  33:12:00:00     432    5.3      46    1.0      233.3  -93.3  -10.7  146.0   -6.2   259.3
 13 FEB  2  33:13:00:00     431    5.0      45    1.3      233.2  -93.4  -10.7  146.0   -6.2   258.7
 13 FEB  2  33:14:00:00     433    4.5      41    0.1      233.2  -93.4  -10.7  146.0   -6.2   258.2
 13 FEB  2  33:15:00:00     449    5.2      44    1.9      233.1  -93.5  -10.7  146.0   -6.2   257.6
 13 FEB  2  33:16:00:00     448    5.1      42    2.2      233.1  -93.6  -10.6  146.0   -6.2   257.1
 13 FEB  2  33:17:00:00     434    3.6      41   -0.8      233.0  -93.6  -10.6  146.0   -6.2   256.5
 13 FEB  2  33:18:00:00     446    3.9      46    0.0      233.0  -93.7  -10.6  146.0   -6.2   255.9
 13 FEB  2  33:19:00:00     425    3.6      43    1.1      232.9  -93.8  -10.6  146.0   -6.2   255.4
 13 FEB  2  33:20:00:00     435    4.2      44    2.1      232.9  -93.8  -10.6  146.0   -6.2   254.9
 13 FEB  2  33:21:00:00     440    4.6      43    2.2      232.8  -93.9  -10.5  146.0   -6.2   254.3
 13 FEB  2  33:22:00:00     438    5.0      41    2.2      232.8  -94.0  -10.5  146.0   -6.2   253.8
 13 FEB  2  33:23:00:00     432    4.7      39    2.1      232.7  -94.0  -10.5  146.0   -6.2   253.2
 13 FEB  3  34:00:00:00     421    4.2      37    1.9      232.7  -94.1  -10.5  146.0   -6.2   252.7
 13 FEB  3  34:01:00:00     409    3.9      36    1.9      232.7  -94.2  -10.4  146.0   -6.2   252.1
 13 FEB  3  34:02:00:00     399    3.9      32    2.5      232.6  -94.2  -10.4  146.0   -6.2   251.6
 13 FEB  3  34:03:00:00     403    3.5      32    3.0      232.6  -94.3  -10.4  146.0   -6.2   251.0
 13 FEB  3  34:04:00:00     412    4.2      35    3.2      232.5  -94.4  -10.4  146.0   -6.2   250.5
 13 FEB  3  34:05:00:00     401    4.0      31    2.2      232.5  -94.4  -10.4  146.0   -6.2   249.9
 13 FEB  3  34:06:00:00     409    4.3      34    2.5      232.4  -94.5  -10.3  146.0   -6.2   249.4
 13 FEB  3  34:07:00:00     423    4.6      35    2.8      232.4  -94.5  -10.3  146.0   -6.2   248.8
 13 FEB  3  34:08:00:00     439    7.0      34    2.4      232.3  -94.6  -10.3  146.0   -6.2   248.3
 13 FEB  3  34:09:00:00     450    8.6      32    2.7      232.3  -94.7  -10.3  146.0   -6.2   247.7
 13 FEB  3  34:10:00:00     454    9.5      32    3.7      232.2  -94.7  -10.2  146.0   -6.2   247.2
 13 FEB  3  34:11:00:00     464   10.3      37    5.5      232.2  -94.8  -10.2  146.0   -6.2   246.7
 13 FEB  3  34:12:00:00     475   15.8      37    7.3      232.1  -94.9  -10.2  146.0   -6.2   246.1
 13 FEB  3  34:13:00:00     452   12.5      36    7.8      232.1  -94.9  -10.2  146.0   -6.2   245.6
 13 FEB  3  34:14:00:00     455   13.9      36    8.0      232.1  -95.0  -10.2  146.0   -6.2   245.0
 13 FEB  3  34:15:00:00     447   14.3      34    7.9      232.0  -95.0  -10.1  146.0   -6.2   244.4
 13 FEB  3  34:16:00:00     429   13.5      35    8.1      232.0  -95.1  -10.1  146.0   -6.2   243.9
 13 FEB  3  34:17:00:00     422   13.2      34    7.8      231.9  -95.2  -10.1  146.0   -6.2   243.3
 13 FEB  3  34:18:00:00     412   12.8      32    7.6      231.9  -95.2  -10.1  146.0   -6.2   242.8
 13 FEB  3  34:19:00:00     403   10.1      31    6.7      231.8  -95.3  -10.0  146.0   -6.2   242.2
 13 FEB  3  34:20:00:00     399   10.2      29    6.8      231.8  -95.4  -10.0  146.0   -6.2   241.7
 13 FEB  3  34:21:00:00     402    9.8      30    6.0      231.7  -95.4  -10.0  146.0   -6.2   241.2
 13 FEB  3  34:22:00:00     388    7.8      28    1.9      231.7  -95.5  -10.0  146.0   -6.2   240.6
 13 FEB  3  34:23:00:00     385    7.8      28    0.9      231.6  -95.5  -10.0  146.0   -6.3   240.1
 13 FEB  4  35:00:00:00     383    7.8      27    0.8      231.6  -95.6   -9.9  146.0   -6.3   239.5
 13 FEB  4  35:01:00:00     385    7.8      28    1.2      231.5  -95.6   -9.9  146.0   -6.3   239.0
 13 FEB  4  35:02:00:00     374    7.7      26    1.0      231.5  -95.7   -9.9  146.0   -6.3   238.4
 13 FEB  4  35:03:00:00     375    8.0      26    1.3      231.5  -95.8   -9.9  146.0   -6.3   237.9
 13 FEB  4  35:04:00:00     370    7.5      25    1.8      231.4  -95.8   -9.8  146.0   -6.3   237.3
 13 FEB  4  35:05:00:00     367    6.3      26    1.9      231.4  -95.9   -9.8  146.0   -6.3   236.7
 13 FEB  4  35:06:00:00     355    5.6      25    2.1      231.3  -95.9   -9.8  146.0   -6.3   236.2
 13 FEB  4  35:07:00:00     353    4.7      29    2.9      231.3  -96.0   -9.8  146.0   -6.3   235.7
 13 FEB  4  35:08:00:00     344    3.7      27    2.1      231.2  -96.1   -9.7  146.0   -6.3   235.1
 13 FEB  4  35:09:00:00     345    3.9      27    1.9      231.2  -96.1   -9.7  146.0   -6.3   234.6
 13 FEB  4  35:10:00:00     350    4.6      26    1.3      231.1  -96.2   -9.7  146.0   -6.3   234.1
 13 FEB  4  35:11:00:00     364    6.6      26    3.3      231.1  -96.2   -9.7  146.0   -6.3   233.5
 13 FEB  4  35:12:00:00     362    8.1      27    4.9      231.0  -96.3   -9.7  146.0   -6.3   232.9
 13 FEB  4  35:13:00:00     361    8.8      26    4.3      231.0  -96.3   -9.6  146.0   -6.3   232.4
 13 FEB  4  35:14:00:00     349    4.7      28    2.7      230.9  -96.4   -9.6  146.0   -6.3   231.8
 13 FEB  4  35:15:00:00     346    5.6      27    2.3      230.9  -96.4   -9.6  146.0   -6.3   231.3
 13 FEB  4  35:16:00:00     340    4.0      26    0.0      230.8  -96.5   -9.6  146.0   -6.3   230.7
 13 FEB  4  35:17:00:00     338    4.1      25   -0.1      230.8  -96.6   -9.5  146.0   -6.3   230.2
 13 FEB  4  35:18:00:00     338    4.3      25    1.1      230.8  -96.6   -9.5  146.0   -6.3   229.6
 13 FEB  4  35:19:00:00     338    5.8      25    1.1      230.7  -96.7   -9.5  146.0   -6.3   229.1
 13 FEB  4  35:20:00:00     339    7.6      26    1.0      230.7  -96.7   -9.5  146.0   -6.3   228.6
 13 FEB  4  35:21:00:00     333    7.7      25    1.7      230.6  -96.8   -9.4  146.0   -6.4   228.0
 13 FEB  4  35:22:00:00     324   10.1      24    2.2      230.6  -96.8   -9.4  146.0   -6.4   227.5
 13 FEB  4  35:23:00:00     322   11.0      23    2.3      230.5  -96.9   -9.4  146.0   -6.4   226.9
 13 FEB  5  36:00:00:00     311   10.5      20    1.5      230.5  -96.9   -9.4  146.0   -6.4   226.4
 13 FEB  5  36:01:00:00     305    9.3      20   -0.1      230.4  -97.0   -9.4  146.0   -6.4   225.8
 13 FEB  5  36:02:00:00     312    8.5      21   -0.5      230.4  -97.0   -9.3  146.0   -6.4   225.2
 13 FEB  5  36:03:00:00     323    5.1      24    1.0      230.3  -97.1   -9.3  146.0   -6.4   224.7
 13 FEB  5  36:04:00:00     337    4.0      29    2.4      230.3  -97.1   -9.3  146.0   -6.4   224.1
 13 FEB  5  36:05:00:00     342    3.6      31    2.1      230.2  -97.2   -9.3  146.0   -6.4   223.6
 13 FEB  5  36:06:00:00     343    3.5      31    1.1      230.2  -97.2   -9.2  146.0   -6.4   223.1
 13 FEB  5  36:07:00:00     342    4.3      31    2.4      230.1  -97.3   -9.2  146.0   -6.4   222.5
 13 FEB  5  36:08:00:00     351    4.6      32    2.9      230.1  -97.3   -9.2  146.0   -6.4   222.0
 13 FEB  5  36:09:00:00     353    4.2      30    3.3      230.1  -97.4   -9.2  146.0   -6.4   221.4
 13 FEB  5  36:10:00:00     342    3.4      28    2.1      230.0  -97.4   -9.1  146.0   -6.4   220.9
 13 FEB  5  36:11:00:00     327    4.3      25    2.7      230.0  -97.5   -9.1  146.0   -6.4   220.3
 13 FEB  5  36:12:00:00     332    4.7      25    3.3      229.9  -97.5   -9.1  146.0   -6.4   219.8
 13 FEB  5  36:13:00:00     347    4.7      27    3.5      229.9  -97.6   -9.1  146.0   -6.4   219.2
 13 FEB  5  36:14:00:00     351    3.7      28    2.3      229.8  -97.6   -9.1  146.1   -6.4   218.7
 13 FEB  5  36:15:00:00     351    3.6      28    2.8      229.8  -97.7   -9.0  146.1   -6.4   218.1
 13 FEB  5  36:16:00:00     351    4.3      29    3.5      229.7  -97.7   -9.0  146.1   -6.4   217.6
 13 FEB  5  36:17:00:00     345    3.7      25    3.2      229.7  -97.8   -9.0  146.1   -6.4   217.0
 13 FEB  5  36:18:00:00     350    3.9      24    3.3      229.6  -97.8   -9.0  146.1   -6.4   216.5
 13 FEB  5  36:19:00:00     334    2.2      24    2.5      229.6  -97.9   -8.9  146.1   -6.4   215.9
 13 FEB  5  36:20:00:00     336    1.6      26    1.3      229.5  -97.9   -8.9  146.1   -6.4   215.4
 13 FEB  5  36:21:00:00     331    1.7      24    2.0      229.5  -98.0   -8.9  146.1   -6.4   214.9
 13 FEB  5  36:22:00:00     316    2.5      20    1.5      229.4  -98.0   -8.9  146.1   -6.4   214.3
 13 FEB  5  36:23:00:00     300    4.2      19    1.3      229.4  -98.1   -8.8  146.1   -6.4   213.7
 13 FEB  6  37:00:00:00     292    4.7      19    1.5      229.3  -98.1   -8.8  146.1   -6.4   213.2
 13 FEB  6  37:01:00:00     289    4.7      18    1.3      229.3  -98.2   -8.8  146.1   -6.4   212.6
 13 FEB  6  37:02:00:00     290    4.8      19    1.4      229.3  -98.2   -8.8  146.1   -6.4   212.1
 13 FEB  6  37:03:00:00     286    5.5      18    1.5      229.2  -98.3   -8.8  146.1   -6.4   211.5
 13 FEB  6  37:04:00:00     283    5.7      17    1.6      229.2  -98.3   -8.7  146.1   -6.4   211.0
 13 FEB  6  37:05:00:00     279    5.3      16    1.4      229.1  -98.3   -8.7  146.1   -6.4   210.4
 13 FEB  6  37:06:00:00     283    4.8      17    1.6      229.1  -98.4   -8.7  146.1   -6.4   209.9
 13 FEB  6  37:07:00:00     284    4.6      17    1.3      229.0  -98.4   -8.7  146.1   -6.4   209.4
 13 FEB  6  37:08:00:00     287    4.6      17    1.8      229.0  -98.5   -8.6  146.1   -6.4   208.8
 13 FEB  6  37:09:00:00     298    3.5      19    1.8      228.9  -98.5   -8.6  146.1   -6.4   208.3
 13 FEB  6  37:10:00:00     297    3.8      18    1.7      228.9  -98.6   -8.6  146.1   -6.4   207.7
 13 FEB  6  37:11:00:00     298    4.1      19    1.6      228.8  -98.6   -8.6  146.1   -6.4   207.2
 13 FEB  6  37:12:00:00     299    4.1      19    1.5      228.8  -98.7   -8.5  146.1   -6.4   206.6
 13 FEB  6  37:13:00:00     298    4.2      19    1.5      228.7  -98.7   -8.5  146.1   -6.4   206.0
 13 FEB  6  37:14:00:00     299    4.7      19    1.5      228.7  -98.7   -8.5  146.1   -6.4   205.5
 13 FEB  6  37:15:00:00     296    5.1      18    1.6      228.6  -98.8   -8.5  146.1   -6.4   204.9
 13 FEB  6  37:16:00:00     299    6.0      19    2.1      228.6  -98.8   -8.4  146.1   -6.4   204.4
 13 FEB  6  37:17:00:00     306    6.4      20    2.6      228.5  -98.9   -8.4  146.1   -6.4   203.9
 13 FEB  6  37:18:00:00     316    5.6      22    1.2      228.5  -98.9   -8.4  146.1   -6.5   203.3
 13 FEB  6  37:19:00:00     324    5.2      23    1.1      228.4  -99.0   -8.4  146.1   -6.5   202.8
 13 FEB  6  37:20:00:00     325    5.1      23    1.3      228.4  -99.0   -8.4  146.1   -6.5   202.2
 13 FEB  6  37:21:00:00     325    7.0      23    3.0      228.3  -99.0   -8.3  146.1   -6.5   201.7
 13 FEB  6  37:22:00:00     320    7.1      22    2.0      228.3  -99.1   -8.3  146.1   -6.5   201.1
 13 FEB  6  37:23:00:00     324    7.1      23    2.3      228.2  -99.1   -8.3  146.1   -6.5   200.6
 13 FEB  7  38:00:00:00     325    6.8      23    2.5      228.2  -99.2   -8.3  146.1   -6.5   200.0
 13 FEB  7  38:01:00:00     322    8.9      22    1.8      228.1  -99.2   -8.2  146.1   -6.5   199.5
 13 FEB  7  38:02:00:00     312   10.3      21    2.0      228.1  -99.2   -8.2  146.1   -6.5   198.9
 13 FEB  7  38:03:00:00     323   12.4      22    3.8      228.1  -99.3   -8.2  146.1   -6.5   198.4
 13 FEB  7  38:04:00:00     335   13.2      24    5.1      228.0  -99.3   -8.2  146.1   -6.5   197.8
 13 FEB  7  38:05:00:00     334   10.1      23    5.3      228.0  -99.4   -8.1  146.1   -6.5   197.3
 13 FEB  7  38:06:00:00     333   18.0      24    6.2      227.9  -99.4   -8.1  146.1   -6.5   196.8
 13 FEB  7  38:07:00:00     331   27.5      24    7.1      227.9  -99.4   -8.1  146.1   -6.5   196.2
 13 FEB  7  38:08:00:00     330   12.1      24    1.7      227.8  -99.5   -8.1  146.1   -6.5   195.7
 13 FEB  7  38:09:00:00     330    6.8      24   -0.4      227.8  -99.5   -8.0  146.1   -6.5   195.1
 13 FEB  7  38:10:00:00     321   10.8      23   -3.1      227.7  -99.5   -8.0  146.1   -6.5   194.5
 13 FEB  7  38:11:00:00     323    9.4      23    0.8      227.7  -99.6   -8.0  146.1   -6.5   194.0
 13 FEB  7  38:12:00:00     321    9.0      23    1.6      227.6  -99.6   -8.0  146.1   -6.5   193.4
 13 FEB  7  38:13:00:00     334    7.4      26    1.5      227.6  -99.7   -7.9  146.1   -6.5   192.9
 13 FEB  7  38:14:00:00     343    7.6      28    0.1      227.5  -99.7   -7.9  146.1   -6.5   192.3
 13 FEB  7  38:15:00:00     341    9.6      28   -1.1      227.5  -99.7   -7.9  146.1   -6.5   191.8
 13 FEB  7  38:16:00:00     350    9.5      29   -2.8      227.4  -99.8   -7.9  146.1   -6.5   191.3
 13 FEB  7  38:17:00:00     351    7.0      29   -1.7      227.4  -99.8   -7.9  146.1   -6.5   190.7
 13 FEB  7  38:18:00:00     349    8.0      31    0.9      227.3  -99.8   -7.8  146.1   -6.5   190.2
 13 FEB  7  38:19:00:00     349   11.2      29   -2.0      227.3  -99.9   -7.8  146.1   -6.5   189.6
 13 FEB  7  38:20:00:00     350   11.6      30   -1.6      227.2  -99.9   -7.8  146.1   -6.5   189.1
 13 FEB  7  38:21:00:00     350   10.5      30   -0.7      227.2  -99.9   -7.8  146.1   -6.5   188.5
 13 FEB  7  38:22:00:00     354   12.7      30   -2.3      227.1 -100.0   -7.7  146.1   -6.5   187.9
 13 FEB  7  38:23:00:00     356   10.8      28   -1.9      227.1 -100.0   -7.7  146.1   -6.5   187.4
 13 FEB  8  39:00:00:00     355    9.3      26    1.1      227.0 -100.0   -7.7  146.1   -6.5   186.8
 13 FEB  8  39:01:00:00     356    9.0      25    1.9      227.0 -100.1   -7.7  146.1   -6.5   186.3
 13 FEB  8  39:02:00:00     358    7.6      25    0.5      226.9 -100.1   -7.6  146.1   -6.5   185.8
 13 FEB  8  39:03:00:00     360    8.0      25    0.3      226.9 -100.1   -7.6  146.1   -6.5   185.2
 13 FEB  8  39:04:00:00     377    6.7      34   -1.6      226.8 -100.2   -7.6  146.1   -6.5   184.7
 13 FEB  8  39:05:00:00     390    6.3      35   -1.6      226.8 -100.2   -7.6  146.1   -6.5   184.1
 13 FEB  8  39:06:00:00     389    5.5      35   -1.0      226.7 -100.2   -7.5  146.1   -6.5   183.6
 13 FEB  8  39:07:00:00     391    6.4      34   -2.0      226.7 -100.3   -7.5  146.1   -6.5   183.0
 13 FEB  8  39:08:00:00     401    7.3      37   -4.0      226.6 -100.3   -7.5  146.1   -6.5   182.5
 13 FEB  8  39:09:00:00     400    5.5      37   -0.2      226.6 -100.3   -7.5  146.1   -6.5   181.9
 13 FEB  8  39:10:00:00     405    5.5      34   -2.6      226.5 -100.4   -7.4  146.1   -6.5   181.4
 13 FEB  8  39:11:00:00     398    4.3      33    0.4      226.5 -100.4   -7.4  146.1   -6.5   180.8
 13 FEB  8  39:12:00:00     402    4.1      33   -0.4      226.4 -100.4   -7.4  146.1   -6.5   180.3
 13 FEB  8  39:13:00:00     414    4.2      36   -1.2      226.4 -100.5   -7.4  146.1   -6.5   179.7
 13 FEB  8  39:14:00:00     421    4.3      40    0.0      226.3 -100.5   -7.3  146.1   -6.5   179.2
 13 FEB  8  39:15:00:00     419    4.2      41    0.1      226.3 -100.5   -7.3  146.2   -6.5   178.6
 13 FEB  8  39:16:00:00     419    3.9      38   -1.0      226.2 -100.6   -7.3  146.2   -6.5   178.1
 13 FEB  8  39:17:00:00     418    4.0      37   -1.1      226.2 -100.6   -7.3  146.2   -6.5   177.6
 13 FEB  8  39:18:00:00     424    4.0      40   -1.3      226.1 -100.6   -7.3  146.2   -6.5   177.0
 13 FEB  8  39:19:00:00     424    3.7      40   -0.9      226.1 -100.7   -7.2  146.2   -6.6   176.4
 13 FEB  8  39:20:00:00     409    4.2      37    0.1      226.0 -100.7   -7.2  146.2   -6.6   175.9
 13 FEB  8  39:21:00:00     415    4.1      36   -0.4      226.0 -100.7   -7.2  146.2   -6.6   175.3
 13 FEB  8  39:22:00:00     419    4.2      37   -0.3      225.9 -100.7   -7.2  146.2   -6.6   174.8
 13 FEB  8  39:23:00:00     421    4.3      38   -0.3      225.9 -100.8   -7.1  146.2   -6.6   174.2
 13 FEB  9  40:00:00:00     429    4.3      40   -0.7      225.8 -100.8   -7.1  146.2   -6.6   173.7
 13 FEB  9  40:01:00:00     434    5.0      38   -0.7      225.8 -100.8   -7.1  146.2   -6.6   173.1
 13 FEB  9  40:02:00:00     435    4.8      37   -0.7      225.7 -100.9   -7.1  146.2   -6.6   172.6
 13 FEB  9  40:03:00:00     427    4.5      38   -1.2      225.7 -100.9   -7.0  146.2   -6.6   172.1
 13 FEB  9  40:04:00:00     425    4.3      38   -1.6      225.6 -100.9   -7.0  146.2   -6.6   171.5
 13 FEB  9  40:05:00:00     423    3.9      38   -1.2      225.6 -100.9   -7.0  146.2   -6.6   171.0
 13 FEB  9  40:06:00:00     419    4.3      37   -1.1      225.5 -101.0   -7.0  146.2   -6.6   170.4
 13 FEB  9  40:07:00:00     403    4.9      33   -1.9      225.5 -101.0   -6.9  146.2   -6.6   169.9
 13 FEB  9  40:08:00:00     392    5.2      30   -2.1      225.4 -101.0   -6.9  146.2   -6.6   169.3
 13 FEB  9  40:09:00:00     386    5.0      28   -2.5      225.4 -101.0   -6.9  146.2   -6.6   168.7
 13 FEB  9  40:10:00:00     386    5.6      29   -2.0      225.3 -101.1   -6.9  146.2   -6.6   168.2
 13 FEB  9  40:11:00:00     381    5.6      27   -1.8      225.3 -101.1   -6.8  146.2   -6.6   167.6
 13 FEB  9  40:12:00:00     377    6.1      26   -1.7      225.2 -101.1   -6.8  146.2   -6.6   167.1
 13 FEB  9  40:13:00:00     371    5.7      24   -1.6      225.2 -101.1   -6.8  146.2   -6.6   166.6
 13 FEB  9  40:14:00:00     364    5.5      23   -1.4      225.1 -101.2   -6.8  146.2   -6.6   166.0
 13 FEB  9  40:15:00:00     362    5.2      23   -1.8      225.1 -101.2   -6.7  146.2   -6.6   165.5
 13 FEB  9  40:16:00:00     359    5.2      23   -1.8      225.0 -101.2   -6.7  146.2   -6.6   164.9
 13 FEB  9  40:17:00:00     362    5.0      24   -1.5      225.0 -101.2   -6.7  146.2   -6.6   164.4
 13 FEB  9  40:18:00:00     358    4.8      24   -0.9      224.9 -101.3   -6.7  146.2   -6.6   163.8
 13 FEB  9  40:19:00:00     357    5.7      22   -0.9      224.9 -101.3   -6.6  146.2   -6.6   163.3
 13 FEB  9  40:20:00:00     367    6.1      23   -1.1      224.8 -101.3   -6.6  146.2   -6.6   162.7
 13 FEB  9  40:21:00:00     368    5.9      23   -1.2      224.8 -101.3   -6.6  146.2   -6.6   162.2
 13 FEB  9  40:22:00:00     362    5.9      22   -0.8      224.7 -101.4   -6.6  146.2   -6.6   161.6
 13 FEB  9  40:23:00:00     352    6.6      20   -0.5      224.7 -101.4   -6.6  146.2   -6.6   161.1
 13 FEB 10  41:00:00:00     363    6.7      24   -2.0      224.6 -101.4   -6.5  146.2   -6.6   160.5
 13 FEB 10  41:01:00:00     361    6.2      25   -1.8      224.6 -101.4   -6.5  146.2   -6.6   160.0
 13 FEB 10  41:02:00:00     362    7.1      25   -1.9      224.5 -101.5   -6.5  146.2   -6.6   159.5
 13 FEB 10  41:03:00:00     361    7.1      26   -1.7      224.5 -101.5   -6.5  146.2   -6.6   158.9
 13 FEB 10  41:04:00:00     361    6.7      26   -1.5      224.4 -101.5   -6.4  146.2   -6.6   158.4
 13 FEB 10  41:05:00:00     361    5.3      28   -1.4      224.3 -101.5   -6.4  146.2   -6.6   157.8
 13 FEB 10  41:06:00:00     364    5.9      27   -0.6      224.3 -101.5   -6.4  146.2   -6.6   157.2
 13 FEB 10  41:07:00:00     362    6.1      27   -1.5      224.2 -101.6   -6.4  146.2   -6.6   156.7
 13 FEB 10  41:08:00:00     364    6.0      26   -2.5      224.2 -101.6   -6.3  146.2   -6.6   156.1
 13 FEB 10  41:09:00:00     362    5.6      26   -1.9      224.1 -101.6   -6.3  146.2   -6.6   155.6
 13 FEB 10  41:10:00:00     359    3.9      29   -1.6      224.1 -101.6   -6.3  146.2   -6.6   155.0
 13 FEB 10  41:11:00:00     365    3.0      28   -0.6      224.0 -101.6   -6.3  146.2   -6.6   154.5
 13 FEB 10  41:12:00:00     370    3.6      27   -0.3      224.0 -101.7   -6.2  146.2   -6.6   154.0
 13 FEB 10  41:13:00:00     367    4.9      26   -1.2      223.9 -101.7   -6.2  146.2   -6.6   153.4
 13 FEB 10  41:14:00:00     363    5.1      24   -1.4      223.9 -101.7   -6.2  146.2   -6.6   152.9
 13 FEB 10  41:15:00:00     357    5.6      21   -1.4      223.8 -101.7   -6.2  146.2   -6.6   152.3
 13 FEB 10  41:16:00:00     356    6.0      21   -1.6      223.8 -101.7   -6.1  146.2   -6.6   151.8
 13 FEB 10  41:17:00:00     352    5.5      20   -1.4      223.7 -101.8   -6.1  146.2   -6.6   151.2
 13 FEB 10  41:18:00:00     358    3.3      24   -0.5      223.7 -101.8   -6.1  146.2   -6.6   150.6
 13 FEB 10  41:19:00:00     362    3.7      23    0.1      223.6 -101.8   -6.1  146.2   -6.6   150.1
 13 FEB 10  41:20:00:00     358    3.3      26   -0.2      223.6 -101.8   -6.0  146.2   -6.6   149.5
 13 FEB 10  41:21:00:00     359    2.3      32   -0.3      223.5 -101.8   -6.0  146.2   -6.6   149.0
 13 FEB 10  41:22:00:00     355    2.2      31   -0.8      223.5 -101.9   -6.0  146.2   -6.6   148.5
 13 FEB 10  41:23:00:00     350    2.2      30   -1.0      223.4 -101.9   -6.0  146.2   -6.6   147.9
 13 FEB 11  42:00:00:00     346    2.5      30   -1.3      223.4 -101.9   -5.9  146.2   -6.6   147.4
 13 FEB 11  42:01:00:00     337    2.8      27   -0.5      223.3 -101.9   -5.9  146.2   -6.7   146.8
 13 FEB 11  42:02:00:00     335    2.8      27    1.3      223.3 -101.9   -5.9  146.2   -6.7   146.3
 13 FEB 11  42:03:00:00     337    3.0      28   -0.1      223.2 -101.9   -5.9  146.2   -6.7   145.7
 13 FEB 11  42:04:00:00     338    3.3      28   -1.5      223.1 -102.0   -5.8  146.2   -6.7   145.2
 13 FEB 11  42:05:00:00     338    3.2      27   -1.5      223.1 -102.0   -5.8  146.2   -6.7   144.6
 13 FEB 11  42:06:00:00     343    4.1      27   -2.9      223.0 -102.0   -5.8  146.2   -6.7   144.1
 13 FEB 11  42:07:00:00     353    5.6      28   -4.7      223.0 -102.0   -5.8  146.2   -6.7   143.5
 13 FEB 11  42:08:00:00     346    5.3      25   -4.3      222.9 -102.0   -5.7  146.2   -6.7   143.0
 13 FEB 11  42:09:00:00     346    4.6      25   -3.1      222.9 -102.0   -5.7  146.2   -6.7   142.4
 13 FEB 11  42:10:00:00     345    3.0      26   -1.7      222.8 -102.1   -5.7  146.2   -6.7   141.9
 13 FEB 11  42:11:00:00     346    3.1      27   -1.9      222.8 -102.1   -5.7  146.2   -6.7   141.3
 13 FEB 11  42:12:00:00     343    3.2      26   -2.1      222.7 -102.1   -5.6  146.3   -6.7   140.8
 13 FEB 11  42:13:00:00     343    4.0      26   -3.3      222.7 -102.1   -5.6  146.3   -6.7   140.3
 13 FEB 11  42:14:00:00     342    4.0      26   -2.9      222.6 -102.1   -5.6  146.3   -6.7   139.7
 13 FEB 11  42:15:00:00     337    5.1      25   -5.5      222.6 -102.1   -5.6  146.3   -6.7   139.1
 13 FEB 11  42:16:00:00     334    9.1      24   -6.5      222.5 -102.1   -5.5  146.3   -6.7   138.6
 13 FEB 11  42:17:00:00     335   11.9      25   -7.7      222.5 -102.2   -5.5  146.3   -6.7   138.0
 13 FEB 11  42:18:00:00     344   11.2      26   -6.8      222.4 -102.2   -5.5  146.3   -6.7   137.5
 13 FEB 11  42:19:00:00     339    4.4      25   -5.4      222.4 -102.2   -5.5  146.3   -6.7   136.9
 13 FEB 11  42:20:00:00     334    5.9      25   -3.8      222.3 -102.2   -5.5  146.3   -6.7   136.4
 13 FEB 11  42:21:00:00     332    7.6      25   -3.6      222.2 -102.2   -5.4  146.3   -6.7   135.8
 13 FEB 11  42:22:00:00     340    5.7      28   -4.8      222.2 -102.2   -5.4  146.3   -6.7   135.3
 13 FEB 11  42:23:00:00     340    5.0      28   -3.7      222.1 -102.2   -5.4  146.3   -6.7   134.8
 13 FEB 12  43:00:00:00     341    4.4      28   -3.8      222.1 -102.3   -5.4  146.3   -6.7   134.2
 13 FEB 12  43:01:00:00     339    3.9      28   -3.3      222.0 -102.3   -5.3  146.3   -6.7   133.7
 13 FEB 12  43:02:00:00     332    4.0      27   -2.1      222.0 -102.3   -5.3  146.3   -6.7   133.1
 13 FEB 12  43:03:00:00     326    4.7      25   -2.2      221.9 -102.3   -5.3  146.3   -6.7   132.6
 13 FEB 12  43:04:00:00     325    4.8      25   -2.4      221.9 -102.3   -5.3  146.3   -6.7   132.0
 13 FEB 12  43:05:00:00     325    4.4      25   -2.1      221.8 -102.3   -5.2  146.3   -6.8   131.4
 13 FEB 12  43:06:00:00     328    3.8      25   -1.6      221.8 -102.3   -5.2  146.3   -6.8   130.9
 13 FEB 12  43:07:00:00     330    3.2      26   -1.3      221.7 -102.3   -5.2  146.3   -6.8   130.3
 13 FEB 12  43:08:00:00     321    3.0      24   -0.5      221.7 -102.4   -5.2  146.3   -6.8   129.8
 13 FEB 12  43:09:00:00     334    1.7      27    0.7      221.6 -102.4   -5.1  146.3   -6.8   129.3
 13 FEB 12  43:10:00:00     343    2.4      30    0.7      221.6 -102.4   -5.1  146.3   -6.8   128.7
 13 FEB 12  43:11:00:00     324    4.0      25    0.9      221.5 -102.4   -5.1  146.3   -6.8   128.2
 13 FEB 12  43:12:00:00     329    4.7      25    0.4      221.4 -102.4   -5.1  146.3   -6.8   127.6
 13 FEB 12  43:13:00:00     318    8.9      24    0.3      221.4 -102.4   -5.0  146.3   -6.8   127.1
 13 FEB 12  43:14:00:00     314   11.7      24    0.6      221.3 -102.4   -5.0  146.3   -6.8   126.5
 13 FEB 12  43:15:00:00     314   10.5      24    1.5      221.3 -102.4   -5.0  146.3   -6.8   126.0
 13 FEB 12  43:16:00:00     318    5.2      24    2.5      221.2 -102.4   -5.0  146.3   -6.8   125.4
 13 FEB 12  43:17:00:00     316    4.8      24    1.6      221.2 -102.4   -4.9  146.3   -6.8   124.8
 13 FEB 12  43:18:00:00     305    7.9      21   -0.8      221.1 -102.5   -4.9  146.3   -6.8   124.3
 13 FEB 12  43:19:00:00     309   10.6      23   -1.6      221.1 -102.5   -4.9  146.3   -6.8   123.8
 13 FEB 12  43:20:00:00     311   10.8      23   -1.3      221.0 -102.5   -4.9  146.3   -6.8   123.2
 13 FEB 12  43:21:00:00     308    9.1      22   -1.6      221.0 -102.5   -4.8  146.3   -6.8   122.7
 13 FEB 12  43:22:00:00     320    5.9      24   -1.2      220.9 -102.5   -4.8  146.3   -6.8   122.2
 13 FEB 12  43:23:00:00     325    4.1      25   -1.3      220.9 -102.5   -4.8  146.3   -6.8   121.6
 13 FEB 13  44:00:00:00     334    6.3      27   -2.3      220.8 -102.5   -4.8  146.3   -6.8   121.0
 13 FEB 13  44:01:00:00     363   10.7      32   -4.0      220.7 -102.5   -4.7  146.3   -6.8   120.5
 13 FEB 13  44:02:00:00      -1   -1.0      -1   99.0      220.7 -102.5   -4.7  146.3   -6.8   119.9
 13 FEB 13  44:03:00:00      -1   -1.0      -1   99.0      220.6 -102.5   -4.7  146.3   -6.8   119.4
 13 FEB 13  44:04:00:00      -1   -1.0      -1   99.0      220.6 -102.5   -4.7  146.3   -6.8   118.8
 13 FEB 13  44:05:00:00      -1   -1.0      -1   99.0      220.5 -102.5   -4.6  146.3   -6.8   118.3
 13 FEB 13  44:06:00:00      -1   -1.0      -1   99.0      220.5 -102.6   -4.6  146.3   -6.8   117.7
 13 FEB 13  44:07:00:00      -1   -1.0      -1   99.0      220.4 -102.6   -4.6  146.3   -6.8   117.2
 13 FEB 13  44:08:00:00      -1   -1.0      -1   99.0      220.4 -102.6   -4.6  146.3   -6.8   116.7
 13 FEB 13  44:09:00:00      -1   -1.0      -1   99.0      220.3 -102.6   -4.5  146.3   -6.8   116.1
 13 FEB 13  44:10:00:00      -1   -1.0      -1   99.0      220.3 -102.6   -4.5  146.3   -6.8   115.6
 13 FEB 13  44:11:00:00     338    3.8      25   -1.8      220.2 -102.6   -4.5  146.3   -6.8   115.0
 13 FEB 13  44:12:00:00     322    4.2      23   -0.8      220.2 -102.6   -4.5  146.3   -6.8   114.5
 13 FEB 13  44:13:00:00     316    4.3      22   -0.8      220.1 -102.6   -4.4  146.3   -6.8   113.9
 13 FEB 13  44:14:00:00     320    3.0      22   -0.4      220.0 -102.6   -4.4  146.3   -6.8   113.3
 13 FEB 13  44:15:00:00     333    3.4      24   -4.6      220.0 -102.6   -4.4  146.3   -6.8   112.8
 13 FEB 13  44:16:00:00     351    4.9      24   -1.1      219.9 -102.6   -4.4  146.3   -6.8   112.2
 13 FEB 13  44:17:00:00     343    9.3      27   -0.6      219.9 -102.6   -4.3  146.3   -6.8   111.7
 13 FEB 13  44:18:00:00     337    9.7      25   -2.5      219.8 -102.6   -4.3  146.3   -6.8   111.2
 13 FEB 13  44:19:00:00     352   21.2      29    6.6      219.8 -102.6   -4.3  146.3   -6.8   110.6
 13 FEB 13  44:20:00:00     361   15.0      25    3.0      219.7 -102.6   -4.3  146.3   -6.8   110.1
 13 FEB 13  44:21:00:00     359    9.5      27    0.0      219.7 -102.6   -4.2  146.3   -6.8   109.5
 13 FEB 13  44:22:00:00     350    9.5      28   -0.8      219.6 -102.6   -4.2  146.3   -6.8   109.0
 13 FEB 13  44:23:00:00     348   12.5      26   -1.2      219.6 -102.6   -4.2  146.3   -6.8   108.4
 13 FEB 14  45:00:00:00     348   13.7      25    3.1      219.5 -102.6   -4.2  146.3   -6.8   107.9
 13 FEB 14  45:01:00:00     327   10.3      24    1.0      219.5 -102.6   -4.1  146.3   -6.8   107.3
 13 FEB 14  45:02:00:00     323    7.8      24   -0.1      219.4 -102.7   -4.1  146.3   -6.8   106.7
 13 FEB 14  45:03:00:00     326    4.7      23    0.0      219.3 -102.7   -4.1  146.3   -6.8   106.2
 13 FEB 14  45:04:00:00     352    3.5      26    1.8      219.3 -102.7   -4.1  146.3   -6.8   105.7
 13 FEB 14  45:05:00:00     357    4.3      23    1.7      219.2 -102.7   -4.0  146.3   -6.8   105.1
 13 FEB 14  45:06:00:00     354    4.8      25   -0.4      219.2 -102.7   -4.0  146.3   -6.8   104.6
 13 FEB 14  45:07:00:00     361    7.5      26    1.8      219.1 -102.7   -4.0  146.4   -6.8   104.0
 13 FEB 14  45:08:00:00     352    5.6      21    0.4      219.1 -102.7   -4.0  146.4   -6.8   103.5
 13 FEB 14  45:09:00:00     350    6.1      19   -0.4      219.0 -102.7   -3.9  146.4   -6.8   102.9
 13 FEB 14  45:10:00:00     356    4.9      21    0.1      219.0 -102.7   -3.9  146.4   -6.8   102.4
 13 FEB 14  45:11:00:00     366    5.2      23   -0.8      218.9 -102.7   -3.9  146.4   -6.8   101.8
 13 FEB 14  45:12:00:00     369    5.4      24   -0.9      218.9 -102.7   -3.9  146.4   -6.8   101.3
 13 FEB 14  45:13:00:00     359    4.3      24   -0.3      218.8 -102.7   -3.8  146.4   -6.8   100.7
 13 FEB 14  45:14:00:00     358    4.7      26    0.9      218.7 -102.7   -3.8  146.4   -6.8   100.2
 13 FEB 14  45:15:00:00     368    6.4      24    2.4      218.7 -102.7   -3.8  146.4   -6.8    99.6
 13 FEB 14  45:16:00:00     365    6.3      23    1.9      218.6 -102.7   -3.8  146.4   -6.8    99.1
 13 FEB 14  45:17:00:00     368    6.1      25   -1.1      218.6 -102.7   -3.7  146.4   -6.8    98.5
 13 FEB 14  45:18:00:00     375    4.2      26   -0.8      218.5 -102.7   -3.7  146.4   -6.8    98.0
 13 FEB 14  45:19:00:00     381    2.7      26   -0.5      218.5 -102.7   -3.7  146.4   -6.8    97.5
 13 FEB 14  45:20:00:00     377    2.3      25   -0.9      218.4 -102.7   -3.7  146.4   -6.9    96.9
 13 FEB 14  45:21:00:00     375    2.1      24   -0.9      218.4 -102.7   -3.6  146.4   -6.9    96.4
 13 FEB 14  45:22:00:00     378    1.9      25   -1.0      218.3 -102.7   -3.6  146.4   -6.9    95.8
 13 FEB 14  45:23:00:00     382    1.8      26   -1.2      218.3 -102.7   -3.6  146.4   -6.9    95.2
 13 FEB 15  46:00:00:00     381    1.7      26   -1.1      218.2 -102.7   -3.6  146.4   -6.9    94.7
 13 FEB 15  46:01:00:00     378    1.7      25   -0.8      218.2 -102.7   -3.5  146.4   -6.9    94.1
 13 FEB 15  46:02:00:00     390    2.1      30   -1.0      218.1 -102.7   -3.5  146.4   -6.9    93.6
 13 FEB 15  46:03:00:00     406    2.4      33   -1.9      218.0 -102.7   -3.5  146.4   -6.9    93.0
 13 FEB 15  46:04:00:00     391    1.7      29   -2.1      218.0 -102.7   -3.5  146.4   -6.9    92.5
 13 FEB 15  46:05:00:00     385    1.1      30   -2.1      217.9 -102.7   -3.4  146.4   -6.9    92.0
 13 FEB 15  46:06:00:00     385    1.3      35   -2.0      217.9 -102.7   -3.4  146.4   -6.9    91.4
 13 FEB 15  46:07:00:00     397    1.9      31   -1.8      217.8 -102.7   -3.4  146.4   -6.9    90.9
 13 FEB 15  46:08:00:00     396    2.1      29   -1.5      217.8 -102.7   -3.4  146.4   -6.9    90.3
 13 FEB 15  46:09:00:00     384    2.1      34   -1.5      217.7 -102.7   -3.3  146.4   -6.9    89.8
 13 FEB 15  46:10:00:00     368    2.0      38   -2.0      217.7 -102.7   -3.3  146.4   -6.9    89.2
 13 FEB 15  46:11:00:00     370    2.0      38   -2.1      217.6 -102.7   -3.3  146.4   -6.9    88.6
 13 FEB 15  46:12:00:00     359    2.5      36   -1.5      217.6 -102.7   -3.3  146.4   -6.9    88.1
 13 FEB 15  46:13:00:00     324    4.9      28   -0.9      217.5 -102.7   -3.2  146.4   -6.9    87.5
 13 FEB 15  46:14:00:00     315    5.4      25   -1.5      217.5 -102.7   -3.2  146.4   -6.9    87.0
 13 FEB 15  46:15:00:00     318    6.2      26   -1.9      217.4 -102.7   -3.2  146.4   -6.9    86.5
 13 FEB 15  46:16:00:00     306    6.5      22   -1.3      217.3 -102.6   -3.2  146.4   -6.9    85.9
 13 FEB 15  46:17:00:00     296    5.8      19   -0.6      217.3 -102.6   -3.1  146.4   -6.9    85.4
 13 FEB 15  46:18:00:00     291    5.9      19   -1.0      217.2 -102.6   -3.1  146.4   -6.9    84.8
 13 FEB 15  46:19:00:00     287    7.3      18   -0.9      217.2 -102.6   -3.1  146.4   -6.9    84.3
 13 FEB 15  46:20:00:00     294    5.3      18   -0.7      217.1 -102.6   -3.1  146.4   -6.9    83.7
 13 FEB 15  46:21:00:00     296    5.8      18   -1.4      217.1 -102.6   -3.0  146.4   -6.9    83.2
 13 FEB 15  46:22:00:00     295    6.1      18   -1.5      217.0 -102.6   -3.0  146.4   -6.9    82.6
 13 FEB 15  46:23:00:00     291    5.7      18   -0.1      217.0 -102.6   -3.0  146.4   -6.9    82.1
 13 FEB 16  47:00:00:00     282    6.1      17    0.2      216.9 -102.6   -3.0  146.4   -6.9    81.5
 13 FEB 16  47:01:00:00     286    6.1      18    0.0      216.9 -102.6   -2.9  146.4   -6.9    81.0
 13 FEB 16  47:02:00:00     284    7.2      17    0.3      216.8 -102.6   -2.9  146.4   -6.9    80.4
 13 FEB 16  47:03:00:00     286    6.3      17    0.2      216.8 -102.6   -2.9  146.4   -6.9    79.9
 13 FEB 16  47:04:00:00     282    6.9      17    0.5      216.7 -102.6   -2.9  146.4   -6.9    79.4
 13 FEB 16  47:05:00:00     286    5.6      18    0.1      216.6 -102.6   -2.8  146.4   -6.9    78.8
 13 FEB 16  47:06:00:00     283    6.9      17    0.5      216.6 -102.6   -2.8  146.4   -6.9    78.3
 13 FEB 16  47:07:00:00     282    6.4      16    0.9      216.5 -102.6   -2.8  146.4   -6.9    77.7
 13 FEB 16  47:08:00:00     283    6.3      17    0.7      216.5 -102.6   -2.8  146.4   -6.9    77.1
 13 FEB 16  47:09:00:00     283    6.2      17    0.8      216.4 -102.6   -2.7  146.4   -6.9    76.6
 13 FEB 16  47:10:00:00     291    5.3      18    0.9      216.4 -102.6   -2.7  146.4   -6.9    76.0
 13 FEB 16  47:11:00:00     350    9.5      26    0.2      216.3 -102.6   -2.7  146.4   -6.9    75.5
 13 FEB 16  47:12:00:00     370   12.6      30   -1.8      216.3 -102.5   -2.7  146.4   -6.9    74.9
 13 FEB 16  47:13:00:00     368   14.5      33   -2.8      216.2 -102.5   -2.6  146.4   -6.9    74.4
 13 FEB 16  47:14:00:00     352   19.8      35    0.0      216.2 -102.5   -2.6  146.4   -6.9    73.9
 13 FEB 16  47:15:00:00     347   19.4      34    2.0      216.1 -102.5   -2.6  146.4   -6.9    73.3
 13 FEB 16  47:16:00:00     360   11.5      33    2.8      216.1 -102.5   -2.6  146.4   -6.9    72.8
 13 FEB 16  47:17:00:00     363   10.2      30    0.9      216.0 -102.5   -2.5  146.4   -6.9    72.2
 13 FEB 16  47:18:00:00     369    9.6      34   -1.8      216.0 -102.5   -2.5  146.4   -6.9    71.7
 13 FEB 16  47:19:00:00     359    7.9      23   -1.7      215.9 -102.5   -2.5  146.4   -6.9    71.1
 13 FEB 16  47:20:00:00     358    8.1      23   -0.8      215.8 -102.5   -2.5  146.4   -6.9    70.5
 13 FEB 16  47:21:00:00     356    8.6      24   -1.5      215.8 -102.5   -2.4  146.4   -6.9    70.0
 13 FEB 16  47:22:00:00     345    9.5      27   -0.2      215.7 -102.5   -2.4  146.4   -6.9    69.4
 13 FEB 16  47:23:00:00     344   12.5      27   -2.0      215.7 -102.5   -2.4  146.5   -6.9    68.9
 13 FEB 17  48:00:00:00     341   11.5      27   -0.2      215.6 -102.4   -2.4  146.5   -6.9    68.4
 13 FEB 17  48:01:00:00     340   10.4      26    0.0      215.6 -102.4   -2.3  146.5   -6.9    67.8
 13 FEB 17  48:02:00:00     332   12.1      26    2.2      215.5 -102.4   -2.3  146.5   -6.9    67.3
 13 FEB 17  48:03:00:00     329   10.3      25    2.5      215.5 -102.4   -2.3  146.5   -6.9    66.7
 13 FEB 17  48:04:00:00     324    9.7      25    2.0      215.4 -102.4   -2.3  146.5   -6.9    66.2
 13 FEB 17  48:05:00:00     326    9.3      25    2.6      215.4 -102.4   -2.2  146.5   -6.9    65.6
 13 FEB 17  48:06:00:00     325    8.3      25    2.7      215.3 -102.4   -2.2  146.5   -6.9    65.1
 13 FEB 17  48:07:00:00     320    8.5      24    2.2      215.3 -102.4   -2.2  146.5   -6.9    64.5
 13 FEB 17  48:08:00:00     324    7.7      25    2.0      215.2 -102.4   -2.2  146.5   -6.9    64.0
 13 FEB 17  48:09:00:00     325    7.9      25    2.5      215.2 -102.4   -2.1  146.5   -6.9    63.4
 13 FEB 17  48:10:00:00     350    9.1      28    5.4      215.1 -102.3   -2.1  146.5   -6.9    62.9
 13 FEB 17  48:11:00:00     357    5.9      27    3.5      215.1 -102.3   -2.1  146.5   -6.9    62.3
 13 FEB 17  48:12:00:00     351    3.3      28    1.5      215.0 -102.3   -2.1  146.5   -6.9    61.8
 13 FEB 17  48:13:00:00     351    8.3      21    0.5      214.9 -102.3   -2.0  146.5   -6.9    61.2
 13 FEB 17  48:14:00:00     361    5.4      24    2.5      214.9 -102.3   -2.0  146.5   -6.9    60.7
 13 FEB 17  48:15:00:00     370    1.5      31    0.9      214.8 -102.3   -2.0  146.5   -6.9    60.1
 13 FEB 17  48:16:00:00     366    1.5      31    0.7      214.8 -102.3   -2.0  146.5   -6.9    59.6
 13 FEB 17  48:17:00:00     363    2.0      31    0.8      214.7 -102.3   -1.9  146.5   -6.9    59.0
 13 FEB 17  48:18:00:00     365    2.3      30    1.3      214.7 -102.3   -1.9  146.5   -6.9    58.5
 13 FEB 17  48:19:00:00     349    4.4      27    1.7      214.6 -102.2   -1.9  146.5   -6.9    57.9
 13 FEB 17  48:20:00:00     346    5.3      24    2.4      214.6 -102.2   -1.9  146.5   -7.0    57.4
 13 FEB 17  48:21:00:00     341    3.9      25    1.3      214.5 -102.2   -1.8  146.5   -7.0    56.8
 13 FEB 17  48:22:00:00     346    5.5      24    2.9      214.5 -102.2   -1.8  146.5   -7.0    56.3
 13 FEB 17  48:23:00:00     348    4.3      26    0.6      214.4 -102.2   -1.8  146.5   -7.0    55.7
 13 FEB 18  49:00:00:00     340    4.0      25   -0.7      214.4 -102.2   -1.8  146.5   -7.0    55.2
 13 FEB 18  49:01:00:00     332    4.1      26   -0.5      214.3 -102.2   -1.7  146.5   -7.0    54.7
 13 FEB 18  49:02:00:00     323    6.5      23   -0.6      214.3 -102.2   -1.7  146.5   -7.0    54.1
 13 FEB 18  49:03:00:00     325    7.8      22   -3.8      214.2 -102.1   -1.7  146.5   -7.0    53.6
 13 FEB 18  49:04:00:00     326    5.6      21   -4.4      214.2 -102.1   -1.7  146.5   -7.0    53.0
 13 FEB 18  49:05:00:00     298    6.0      19   -0.6      214.1 -102.1   -1.6  146.5   -7.0    52.4
 13 FEB 18  49:06:00:00     311    3.9      20   -0.5      214.1 -102.1   -1.6  146.5   -7.0    51.9
 13 FEB 18  49:07:00:00     310    4.0      20    0.7      214.0 -102.1   -1.6  146.5   -7.0    51.3
 13 FEB 18  49:08:00:00     299    4.9      19    0.6      214.0 -102.1   -1.6  146.5   -7.0    50.8
 13 FEB 18  49:09:00:00     317    4.7      21    2.4      213.9 -102.1   -1.5  146.5   -7.0    50.2
 13 FEB 18  49:10:00:00     319    5.8      21   -3.2      213.9 -102.0   -1.5  146.5   -7.0    49.7
 13 FEB 18  49:11:00:00     335    6.4      24    4.1      213.8 -102.0   -1.5  146.5   -7.0    49.2
 13 FEB 18  49:12:00:00     331    5.2      23    4.7      213.8 -102.0   -1.5  146.5   -7.0    48.6
 13 FEB 18  49:13:00:00     315    4.5      21    0.8      213.7 -102.0   -1.4  146.5   -7.0    48.1
 13 FEB 18  49:14:00:00     307    4.6      20    0.1      213.6 -102.0   -1.4  146.5   -7.0    47.5
 13 FEB 18  49:15:00:00     316    5.8      21    3.5      213.6 -102.0   -1.4  146.5   -7.0    47.0
 13 FEB 18  49:16:00:00     314    5.2      21    3.4      213.5 -101.9   -1.4  146.5   -7.0    46.4
 13 FEB 18  49:17:00:00     315    5.2      21    2.8      213.5 -101.9   -1.3  146.5   -7.0    45.8
 13 FEB 18  49:18:00:00     328    7.4      23    6.1      213.4 -101.9   -1.3  146.5   -7.0    45.3
 13 FEB 18  49:19:00:00     327    8.6      22    5.8      213.4 -101.9   -1.3  146.5   -7.0    44.7
 13 FEB 18  49:20:00:00     329    8.0      23    5.0      213.3 -101.9   -1.3  146.5   -7.0    44.2
 13 FEB 18  49:21:00:00     314    6.6      21    1.6      213.3 -101.9   -1.2  146.5   -7.0    43.7
 13 FEB 18  49:22:00:00     318    6.3      22    1.1      213.2 -101.8   -1.2  146.5   -7.0    43.1
 13 FEB 18  49:23:00:00     317    6.0      22    1.3      213.2 -101.8   -1.2  146.5   -7.0    42.6
 13 FEB 19  50:00:00:00     320    5.6      22    0.7      213.1 -101.8   -1.2  146.5   -7.0    42.0
 13 FEB 19  50:01:00:00     320    4.8      21    1.9      213.1 -101.8   -1.1  146.5   -7.0    41.5
 13 FEB 19  50:02:00:00     323    4.6      21    3.8      213.0 -101.8   -1.1  146.5   -7.0    40.9
 13 FEB 19  50:03:00:00     326    6.2      22    3.5      213.0 -101.8   -1.1  146.5   -7.0    40.4
 13 FEB 19  50:04:00:00     324    6.6      23    0.0      212.9 -101.7   -1.1  146.5   -7.0    39.8
 13 FEB 19  50:05:00:00     331    5.3      24    2.8      212.9 -101.7   -1.0  146.5   -7.0    39.3
 13 FEB 19  50:06:00:00     333    6.7      24    2.9      212.8 -101.7   -1.0  146.5   -7.0    38.7
 13 FEB 19  50:07:00:00     328    7.6      24    3.5      212.8 -101.7   -1.0  146.5   -7.0    38.2
 13 FEB 19  50:08:00:00     331    8.6      24    3.8      212.7 -101.7   -1.0  146.5   -7.0    37.6
 13 FEB 19  50:09:00:00     324    6.3      24   -1.6      212.7 -101.7   -0.9  146.5   -7.0    37.1
 13 FEB 19  50:10:00:00     333    7.2      25    1.5      212.6 -101.6   -0.9  146.5   -7.0    36.6
 13 FEB 19  50:11:00:00     336    6.6      25   -2.2      212.6 -101.6   -0.9  146.5   -7.0    36.0
 13 FEB 19  50:12:00:00     343    5.3      24    1.3      212.5 -101.6   -0.8  146.5   -7.0    35.5
 13 FEB 19  50:13:00:00     347    6.0      25    3.1      212.5 -101.6   -0.8  146.5   -7.0    34.9
 13 FEB 19  50:14:00:00     350    8.2      28    2.9      212.4 -101.6   -0.8  146.6   -7.0    34.3
 13 FEB 19  50:15:00:00     353    7.5      25    0.5      212.4 -101.5   -0.8  146.6   -7.0    33.8
 13 FEB 19  50:16:00:00     351    5.8      29    1.8      212.3 -101.5   -0.7  146.6   -7.0    33.2
 13 FEB 19  50:17:00:00     350    8.7      29    0.5      212.3 -101.5   -0.7  146.6   -7.0    32.7
 13 FEB 19  50:18:00:00     344    6.1      28    0.0      212.2 -101.5   -0.7  146.6   -7.0    32.1
 13 FEB 19  50:19:00:00     355    8.5      24   -2.5      212.2 -101.5   -0.7  146.6   -7.0    31.6
 13 FEB 19  50:20:00:00     350    7.2      21   -1.3      212.1 -101.4   -0.6  146.6   -7.0    31.1
 13 FEB 19  50:21:00:00     354    8.2      21   -2.3      212.1 -101.4   -0.6  146.6   -7.0    30.5
 13 FEB 19  50:22:00:00     351    5.5      23   -0.2      212.0 -101.4   -0.6  146.6   -7.0    30.0
 13 FEB 19  50:23:00:00     350    5.0      25   -0.1      212.0 -101.4   -0.6  146.6   -7.0    29.4
 13 FEB 20  51:00:00:00     350    5.6      25   -0.3      211.9 -101.3   -0.5  146.6   -7.0    28.9
 13 FEB 20  51:01:00:00     354   10.0      24   -2.7      211.9 -101.3   -0.5  146.6   -7.0    28.3
 13 FEB 20  51:02:00:00     347    6.5      25   -0.2      211.8 -101.3   -0.5  146.6   -7.0    27.7
 13 FEB 20  51:03:00:00     353    7.5      24    1.0      211.8 -101.3   -0.5  146.6   -7.0    27.2
 13 FEB 20  51:04:00:00     349    6.0      24   -0.9      211.7 -101.3   -0.4  146.6   -7.0    26.6
 13 FEB 20  51:05:00:00     348    5.7      24   -0.6      211.7 -101.2   -0.4  146.6   -7.0    26.1
 13 FEB 20  51:06:00:00     351    6.0      22   -0.5      211.6 -101.2   -0.4  146.6   -7.0    25.6
 13 FEB 20  51:07:00:00     350    5.4      20    0.1      211.6 -101.2   -0.4  146.6   -7.0    25.0
 13 FEB 20  51:08:00:00     360    6.0      24   -1.2      211.5 -101.2   -0.3  146.6   -7.0    24.5
 13 FEB 20  51:09:00:00     384    7.0      32    2.9      211.5 -101.1   -0.3  146.6   -7.0    23.9
 13 FEB 20  51:10:00:00     375    6.8      29    1.0      211.5 -101.1   -0.3  146.6   -7.0    23.4
 13 FEB 20  51:11:00:00     374    6.5      27   -0.7      211.4 -101.1   -0.3  146.6   -7.0    22.8
 13 FEB 20  51:12:00:00     366    6.0      24   -0.1      211.4 -101.1   -0.2  146.6   -7.0    22.3
 13 FEB 20  51:13:00:00     365    6.5      24   -1.2      211.3 -101.1   -0.2  146.6   -7.0    21.7
 13 FEB 20  51:14:00:00     365    6.1      24   -0.9      211.3 -101.0   -0.2  146.6   -7.0    21.1
 13 FEB 20  51:15:00:00     369    5.5      28    0.0      211.2 -101.0   -0.2  146.6   -7.0    20.6
 13 FEB 20  51:16:00:00     374    5.6      30    1.2      211.2 -101.0   -0.1  146.6   -7.0    20.1
 13 FEB 20  51:17:00:00     364    5.6      27   -1.9      211.1 -101.0   -0.1  146.6   -7.0    19.5
 13 FEB 20  51:18:00:00     363    6.1      27   -1.9      211.1 -100.9   -0.1  146.6   -7.0    19.0
 13 FEB 20  51:19:00:00     368    5.5      28   -0.9      211.0 -100.9   -0.1  146.6   -7.0    18.4
 13 FEB 20  51:20:00:00     381    9.2      29    1.3      211.0 -100.9    0.0  146.6   -7.0    17.9
 13 FEB 20  51:21:00:00     379    8.2      29    0.5      210.9 -100.9    0.0  146.6   -7.0    17.3
 13 FEB 20  51:22:00:00     399    8.5      36    1.3      210.9 -100.8    0.0  146.6   -7.0    16.8
 13 FEB 20  51:23:00:00     389    7.3      30    1.0      210.8 -100.8    0.0  146.6   -7.0    16.2
 13 FEB 21  52:00:00:00     413    8.5      42    2.5      210.8 -100.8    0.1  146.6   -7.0    15.7
 13 FEB 21  52:01:00:00     409    7.3      39    0.9      210.7 -100.8    0.1  146.6   -7.0    15.1
 13 FEB 21  52:02:00:00     413   10.3      38    4.7      210.7 -100.7    0.1  146.6   -7.0    14.6
 13 FEB 21  52:03:00:00     412   10.9      36    5.6      210.6 -100.7    0.1  146.6   -7.0    14.0
 13 FEB 21  52:04:00:00     403   12.6      32    5.9      210.6 -100.7    0.2  146.6   -7.0    13.5
 13 FEB 21  52:05:00:00     401   17.5      33    7.1      210.5 -100.6    0.2  146.6   -7.0    12.9
 13 FEB 21  52:06:00:00     403   13.3      41    5.1      210.5 -100.6    0.2  146.6   -7.0    12.4
 13 FEB 21  52:07:00:00     400   15.8      42    5.5      210.5 -100.6    0.2  146.6   -7.0    11.9
 13 FEB 21  52:08:00:00     399   14.0      42    5.3      210.4 -100.6    0.3  146.6   -7.0    11.3
 13 FEB 21  52:09:00:00     385   12.0      39    4.4      210.4 -100.5    0.3  146.6   -7.0    10.7
 13 FEB 21  52:10:00:00     380   13.1      39    4.3      210.3 -100.5    0.3  146.6   -7.0    10.2
 13 FEB 21  52:11:00:00     376   10.4      36    3.3      210.3 -100.5    0.4  146.6   -7.0     9.6
 13 FEB 21  52:12:00:00     388    7.2      39    2.2      210.2 -100.5    0.4  146.6   -7.0     9.1
 13 FEB 21  52:13:00:00     394    6.9      40    1.2      210.2 -100.4    0.4  146.6   -7.0     8.5
 13 FEB 21  52:14:00:00     377    7.3      36    0.5      210.1 -100.4    0.4  146.6   -7.0     8.0
 13 FEB 21  52:15:00:00     373    7.9      34    1.9      210.1 -100.4    0.5  146.6   -7.1     7.4
 13 FEB 21  52:16:00:00     373    8.6      32    2.9      210.0 -100.3    0.5  146.6   -7.1     6.9
 13 FEB 21  52:17:00:00     373    8.3      31    2.2      210.0 -100.3    0.5  146.6   -7.1     6.4
 13 FEB 21  52:18:00:00     367    8.4      30    2.7      209.9 -100.3    0.5  146.6   -7.1     5.8
 13 FEB 21  52:19:00:00     371    7.5      31    0.6      209.9 -100.3    0.6  146.6   -7.1     5.3
 13 FEB 21  52:20:00:00     371    7.7      29    0.6      209.9 -100.2    0.6  146.6   -7.1     4.7
 13 FEB 21  52:21:00:00     374    6.6      33    0.6      209.8 -100.2    0.6  146.6   -7.1     4.2
 13 FEB 21  52:22:00:00     370    7.9      29    1.6      209.8 -100.2    0.6  146.6   -7.1     3.6
 13 FEB 21  52:23:00:00     376    6.9      29    0.7      209.7 -100.1    0.7  146.6   -7.1     3.0
 13 FEB 22  53:00:00:00     373    7.0      29    0.5      209.7 -100.1    0.7  146.6   -7.1     2.5
 13 FEB 22  53:01:00:00     377    6.7      29    0.3      209.6 -100.1    0.7  146.6   -7.1     1.9
 13 FEB 22  53:02:00:00     374    7.8      29    2.0      209.6 -100.0    0.7  146.6   -7.1     1.4
 13 FEB 22  53:03:00:00     373    7.2      32    3.2      209.5 -100.0    0.8  146.7   -7.1     0.9